Ship Status Report: callsign BATFR34

sailwx.info

Track history (hours):
 
Tides and Currents Weather Stations Pressure Air Temp Water Temp Dewpoint Dewpoint Depression Visibility Wind Speed Wind Dir Waves Ship Positions

Callsign BATFR34 (name unknown)

Last reported at 2016-Jun-26 04:00 UTC. Time now 2016-Jun-27 09:43 UTC.
Position N 47°48' W 004°18'.

Wind from 300 at 10 knots

Barometer 1023.5 mb
Air temperature 14.4 ° C
Water temperature 15.4 ° C

Date/timePositionNaut miles runAvg speedWind from/ knotsBaromVisibWave heightAir tempDewpointWater temp
2016-Jun-26 04:00N 47°48' W 004°18'1413.5 300 / 101023.5 14.4 15.4
2016-Jun-26 03:00N 47°42' W 004°36'8 8.1 310 / 101023.6 14.9 15.7
2016-Jun-26 02:00N 47°42' W 004°48'17 8.6 310 / 141024.2 15.2 17.7
2016-Jun-26 00:00N 47°36' W 005°12'1010.1 320 / 151024.8 15.4 17.7
2016-Jun-25 23:00N 47°30' W 005°24'8 8.1 340 / 131024.9 15.4 16.5
2016-Jun-25 22:00N 47°30' W 005°36'4 4.1 330 / 141024.8 15.4 17.0
2016-Jun-25 21:00N 47°30' W 005°42'0 0.0 330 / 121024.9 16.0 16.4
2016-Jun-25 20:00N 47°30' W 005°42'4 4.1 360 / 121024.4 15.5 16.7
2016-Jun-25 19:00N 47°30' W 005°48'0 0.0 340 / 121024.4 15.5 16.9
2016-Jun-25 18:00N 47°30' W 005°48'4 4.1 330 / 141024.2 15.7 16.9
2016-Jun-25 17:00N 47°30' W 005°54'7 7.2 330 / 131024.2 15.7 16.9
2016-Jun-25 16:00N 47°24' W 006°00'4 4.1 290 / 91024.5 15.7 16.9
2016-Jun-25 15:00N 47°24' W 005°54'0 0.0 290 / 131024.7 15.5 16.4
2016-Jun-25 14:00N 47°24' W 005°54'0 0.0 290 / 121024.7 15.9 16.0
2016-Jun-25 13:00N 47°24' W 005°54'4 4.1 320 / 101024.4 15.5 15.9
2016-Jun-25 12:00N 47°24' W 005°48'4 2.0 300 / 111024.4 15.2 15.7
2016-Jun-25 10:00N 47°24' W 005°42'6 6.0 310 / 151024.2 15.7 16.9
2016-Jun-25 09:00N 47°30' W 005°42'0 0.0 320 / 121023.9 19.7 16.5
2016-Jun-25 08:00N 47°30' W 005°42'4 4.1 320 / 141023.6 15.7 16.4
2016-Jun-25 07:00N 47°30' W 005°48'4 4.1 330 / 141023.1 15.4 16.5
2016-Jun-25 06:00N 47°30' W 005°54'7 3.6 340 / 121022.8 15.4 16.4
2016-Jun-25 04:00N 47°24' W 006°00'4 2.0 350 / 131022.7 15.2 16.4
2016-Jun-25 02:00N 47°24' W 005°54'6 6.0 280 / 151023.0 15.2 15.9
2016-Jun-25 01:00N 47°18' W 005°54'4 4.1 260 / 131022.9 14.9 15.4
2016-Jun-25 00:00N 47°18' W 005°48'0 0.0 270 / 91023.4 14.7 15.4
2016-Jun-24 23:00N 47°18' W 005°48'4 4.1 260 / 91023.8 14.7 15.7
2016-Jun-24 22:00N 47°18' W 005°42'6 6.0 300 / 91023.7 15.0 16.4
2016-Jun-24 21:00N 47°24' W 005°42'0 0.0 310 / 111023.6 17.9 16.7
2016-Jun-24 20:00N 47°24' W 005°42'4 4.1 300 / 131023.0 19.7 16.2
2016-Jun-24 19:00N 47°24' W 005°48'6 6.0 280 / 121022.9 16.9 15.9
2016-Jun-24 18:00N 47°30' W 005°48'4 4.1 270 / 131022.8 20.9 16.4
2016-Jun-24 17:00N 47°30' W 005°54'7 7.2 270 / 71022.9 15.4 16.7
2016-Jun-24 16:00N 47°24' W 006°00'0 0.0 290 / 121023.0 15.2 16.9
2016-Jun-24 15:00N 47°24' W 006°00'0 0.0 260 / 91023.1 15.4 17.0
2016-Jun-24 14:00N 47°24' W 006°00'6 6.0 280 / 121023.2 14.7 16.7
2016-Jun-24 13:00N 47°18' W 006°00'0 0.0 260 / 81023.5 16.4 16.2
2016-Jun-24 12:00N 47°18' W 006°00'4 4.1 220 / 61023.8 15.7 15.9
2016-Jun-24 11:00N 47°18' W 005°54'7 7.2 250 / 61024.0 15.4 15.7
2016-Jun-24 10:00N 47°24' W 005°48'0 0.0 260 / 51023.7 15.7 15.9
2016-Jun-24 09:00N 47°24' W 005°48'6 6.0 200 / 51023.5 15.5 15.9
2016-Jun-24 08:00N 47°30' W 005°48'4 4.1 250 / 71023.2 15.7 16.0
2016-Jun-24 07:00N 47°30' W 005°54'0 0.0 250 / 81023.0 15.7 16.4
2016-Jun-24 06:00N 47°30' W 005°54'4 4.1 260 / 101022.7 18.0 16.4
2016-Jun-24 05:00N 47°30' W 006°00'0 0.0 250 / 91022.7 16.9 16.7
2016-Jun-24 04:00N 47°30' W 006°00'0 0.0 270 / 81022.4 15.5 16.5
2016-Jun-24 03:00N 47°30' W 006°00'6 6.0 330 / 41022.8 15.5 16.9
2016-Jun-24 02:00N 47°24' W 006°00'0 0.0 260 / 71023.0 15.2 16.5
2016-Jun-24 01:00N 47°24' W 006°00'6 6.0 260 / 101023.4 15.0 16.2
2016-Jun-24 00:00N 47°18' W 006°00'4 4.1 250 / 91023.7 14.9 16.2
2016-Jun-23 23:00N 47°18' W 005°54'7 7.2 330 / 91023.6 15.0 16.0
2016-Jun-23 22:00N 47°24' W 005°48'0 0.0 320 / 71023.4 15.9 15.5
2016-Jun-23 21:00N 47°24' W 005°48'0 0.0 320 / 91022.9 15.4 16.2
2016-Jun-23 20:00N 47°24' W 005°48'7 7.2 310 / 111022.1 15.9 16.0
2016-Jun-23 19:00N 47°30' W 005°54'0 0.0 330 / 81021.6 15.9 16.7
2016-Jun-23 18:00N 47°30' W 005°54'4 4.1 340 / 111021.1 15.9 16.7
2016-Jun-23 17:00N 47°30' W 006°00'0 0.0 340 / 91020.8 15.9 17.0
2016-Jun-23 16:00N 47°30' W 006°00'4 4.1 330 / 101020.7 15.9 17.0
2016-Jun-23 15:00N 47°30' W 006°06'6 6.0 320 / 131020.3 15.9 16.9
2016-Jun-23 14:00N 47°24' W 006°06'4 4.1 320 / 111020.5 15.9 17.2
2016-Jun-23 13:00N 47°24' W 006°12'0 0.0 310 / 121020.4 15.9 16.9
2016-Jun-23 12:00N 47°24' W 006°12'7 7.2 330 / 81019.9 15.9 16.5
2016-Jun-23 11:00N 47°18' W 006°06'0 0.0 320 / 71020.1 16.0 16.7
2016-Jun-23 10:00N 47°18' W 006°06'7 7.2 360 / 111019.5 15.9 16.5
2016-Jun-23 09:00N 47°24' W 006°00'6 6.0 1019.3 16.0 16.7
2016-Jun-23 08:00N 47°30' W 006°00'0 0.0 360 / 151017.7 15.9 16.9
2016-Jun-23 07:00N 47°30' W 006°00'4 4.1 010 / 141017.9 15.5 16.7
2016-Jun-23 06:00N 47°30' W 006°06'4 4.1 340 / 101018.2 15.7 16.7
2016-Jun-23 05:00N 47°30' W 006°12'0 0.0 350 / 121017.3 15.5 16.7
2016-Jun-23 04:00N 47°30' W 006°12'8 4.1 360 / 131017.2 15.5 16.2
2016-Jun-23 02:00N 47°30' W 006°24'0 0.0 320 / 101017.2 15.7 16.5
2016-Jun-23 01:00N 47°30' W 006°24'4 4.1 350 / 131017.3 15.7 16.0
2016-Jun-23 00:00N 47°30' W 006°18'7 7.2 360 / 111017.8 15.5 16.2
2016-Jun-22 23:00N 47°24' W 006°12'0 0.0 350 / 101018.1 15.7 16.5
2016-Jun-22 22:00N 47°24' W 006°12'4 4.1 320 / 61018.5 15.9 16.4
2016-Jun-22 21:00N 47°24' W 006°06'6 6.0 1017.9 17.4 16.5
2016-Jun-22 20:00N 47°30' W 006°06'4 4.1 010 / 91017.3 16.0 16.2
2016-Jun-22 19:00N 47°30' W 006°12'6 6.0 010 / 101017.2 16.0 16.7
2016-Jun-22 18:00N 47°36' W 006°12'0 0.0 350 / 71016.9 16.2 16.7
2016-Jun-22 17:00N 47°36' W 006°12'4 4.0 350 / 61017.4 16.9 16.9
2016-Jun-22 16:00N 47°36' W 006°18'6 6.0 340 / 71017.3 16.7 16.5
2016-Jun-22 15:00N 47°30' W 006°18'0 0.0 340 / 41017.7 16.7 16.7
2016-Jun-22 14:00N 47°30' W 006°18'7 7.2 020 / 31018.4 16.2 16.7
2016-Jun-22 13:00N 47°24' W 006°12'0 0.0 150 / 21018.8 17.2 16.9
2016-Jun-22 12:00N 47°24' W 006°12'4 4.1 130 / 41019.0 16.9 16.7
2016-Jun-22 11:00N 47°24' W 006°06'4 4.1 110 / 41018.9 15.9 16.7
2016-Jun-22 10:00N 47°24' W 006°00'0 0.0 120 / 21018.8 15.7 16.7
2016-Jun-22 09:00N 47°24' W 006°00'6 3.0 170 / 51018.6 0.5 15.9 16.9
2016-Jun-22 07:00N 47°30' W 006°00'0 0.0 170 / 71018.5 15.4 16.7
2016-Jun-22 06:00N 47°30' W 006°00'4 4.1 180 / 61018.0 15.4 16.7
2016-Jun-22 05:00N 47°30' W 006°06'4 4.1 210 / 51017.6 15.5 16.7
2016-Jun-22 04:00N 47°30' W 006°12'0 0.0 170 / 61017.7 15.4 16.4
2016-Jun-22 02:00N 47°30' W 006°12'6 6.0 220 / 91018.6 15.5 16.4
2016-Jun-22 01:00N 47°24' W 006°12'4 4.1 200 / 81018.8 15.7 16.7
2016-Jun-22 00:00N 47°24' W 006°06'0 0.0 210 / 101019.1 15.7 16.4
2016-Jun-21 23:00N 47°24' W 006°06'4 4.1 180 / 91019.2 15.7 16.5
2016-Jun-21 22:00N 47°24' W 006°00'6 3.0 230 / 81019.2 15.7 16.7
2016-Jun-21 20:00N 47°30' W 006°00'4 4.1 180 / 81018.8 15.9 16.7
2016-Jun-21 19:00N 47°30' W 005°54'10 3.4 200 / 91018.5 15.9 16.9
2016-Jun-21 16:00N 47°36' W 006°06'4 4.0 170 / 91018.4 16.2 16.9
2016-Jun-21 15:00N 47°36' W 006°12'6 6.0 110 / 81018.6 15.9 16.9
2016-Jun-21 14:00N 47°30' W 006°12'0 0.0 150 / 91019.2 15.9 16.9
2016-Jun-21 13:00N 47°30' W 006°12'6 6.0 150 / 61019.6 16.4 16.7
2016-Jun-21 12:00N 47°24' W 006°12'0 0.0 150 / 51019.9 16.2 16.7
2016-Jun-21 11:00N 47°24' W 006°12'4 4.1 170 / 51020.2 15.4 16.5
2016-Jun-21 10:00N 47°24' W 006°06'4 4.1 180 / 61020.2 15.4 16.4
2016-Jun-21 09:00N 47°24' W 006°00'0 0.0 160 / 51019.8 15.5 16.4
2016-Jun-21 08:00N 47°24' W 006°00'6 6.0 210 / 41019.6 15.5 16.5
2016-Jun-21 07:00N 47°30' W 006°00'0 0.0 240 / 41019.4 15.4 16.7
2016-Jun-21 06:00N 47°30' W 006°00'8 2.7 280 / 81019.1 15.4 16.7
2016-Jun-21 03:00N 47°30' W 006°12'0 0.0 280 / 91018.7 15.2 16.4
2016-Jun-21 02:00N 47°30' W 006°12'0 0.0 260 / 91019.2 14.9 16.4
2016-Jun-21 01:00N 47°30' W 006°12'6 6.0 260 / 121019.1 14.9 16.2
2016-Jun-21 00:00N 47°24' W 006°12'0 0.0 240 / 121019.6 15.0 16.0
2016-Jun-20 23:00N 47°24' W 006°12'4 4.1 260 / 101020.1 15.2 16.2
2016-Jun-20 22:00N 47°24' W 006°06'0 0.0 260 / 91019.8 15.2 16.4
2016-Jun-20 21:00N 47°24' W 006°06'6 6.0 300 / 101019.7 15.7 16.4
2016-Jun-20 20:00N 47°30' W 006°06'4 4.1 290 / 131019.7 21.4 16.4
2016-Jun-20 19:00N 47°30' W 006°12'0 0.0 280 / 131019.2 19.2 16.2
2016-Jun-20 18:00N 47°30' W 006°12'6 6.0 270 / 121018.7 15.4 16.2
2016-Jun-20 17:00N 47°36' W 006°12'4 4.0 260 / 101018.7 15.9 16.4
2016-Jun-20 16:00N 47°36' W 006°18'0 0.0 250 / 141018.6 15.7 16.4
2016-Jun-20 15:00N 47°36' W 006°18'4 4.0 260 / 141018.6 15.5 16.4
2016-Jun-20 14:00N 47°36' W 006°24'6 6.0 270 / 151018.7 15.5 15.9
2016-Jun-20 13:00N 47°30' W 006°24'0 0.0 260 / 161019.1 15.7 16.0
2016-Jun-20 12:00N 47°30' W 006°24'7 7.2 260 / 151019.3 15.9 15.9
2016-Jun-20 11:00N 47°24' W 006°18'0 0.0 240 / 171019.5 15.9 15.7
2016-Jun-20 10:00N 47°24' W 006°18'4 4.1 230 / 181019.7 15.9 15.7
2016-Jun-20 09:00N 47°24' W 006°12'6 6.0 250 / 151019.6 15.7 15.9
2016-Jun-20 08:00N 47°30' W 006°12'0 0.0 260 / 181019.7 16.4 15.9
2016-Jun-20 07:00N 47°30' W 006°12'6 6.0 210 / 201019.5 15.5 16.2
2016-Jun-20 06:00N 47°36' W 006°12'0 0.0 200 / 191019.4 15.5 16.2
2016-Jun-20 05:00N 47°36' W 006°12'4 4.0 210 / 191019.5 15.7 16.4
2016-Jun-20 04:00N 47°36' W 006°18'0 0.0 230 / 221020.0 16.0 16.4
2016-Jun-20 03:00N 47°36' W 006°18'0 0.0 230 / 191020.6 15.9 16.0
2016-Jun-20 02:00N 47°36' W 006°18'7 7.2 250 / 161021.6 15.5 16.2
2016-Jun-20 01:00N 47°30' W 006°24'4 4.1 260 / 211022.4 15.7 16.2
2016-Jun-20 00:00N 47°30' W 006°18'6 6.0 240 / 191023.4 15.7 16.4
2016-Jun-19 23:00N 47°24' W 006°18'4 4.1 240 / 181024.4 15.7 16.4
2016-Jun-19 22:00N 47°24' W 006°12'0 0.0 210 / 171024.8 15.5 16.2
2016-Jun-19 21:00N 47°24' W 006°12'4 4.1 200 / 151025.6 15.4 16.2
2016-Jun-19 20:00N 47°24' W 006°06'0 0.0 190 / 161025.8 15.4 16.5
2016-Jun-19 19:00N 47°24' W 006°06'4 4.1 230 / 111026.2 15.4 16.7
2016-Jun-19 18:00N 47°24' W 006°00'7 3.6 230 / 121026.5 15.5 16.9
2016-Jun-19 16:00N 47°30' W 006°06'4 4.1 250 / 111027.3 19.0 16.4
2016-Jun-19 15:00N 47°30' W 006°12'0 0.0 230 / 131027.6 15.2 16.4
2016-Jun-19 14:00N 47°30' W 006°12'0 0.0 230 / 121028.0 17.5 16.7
2016-Jun-19 12:00N 47°30' W 006°12'6 6.0 270 / 101028.7 15.4 16.2
2016-Jun-19 11:00N 47°24' W 006°12'4 2.0 270 / 91029.0 15.5 16.7
2016-Jun-19 09:00N 47°24' W 006°06'4 4.1 250 / 101029.1 15.9 16.4
2016-Jun-19 08:00N 47°24' W 006°00'0 0.0 300 / 91029.1 15.2 16.4
2016-Jun-19 07:00N 47°24' W 006°00'7 3.6 280 / 91028.8 15.2 16.4
2016-Jun-19 05:00N 47°30' W 006°06'4 2.0 270 / 101028.2 15.0 16.7
2016-Jun-19 03:00N 47°30' W 006°12'0 0.0 270 / 91028.3 15.2 16.5
2016-Jun-19 02:00N 47°30' W 006°12'0 0.0 300 / 101028.4 14.9 16.4
2016-Jun-19 01:00N 47°30' W 006°12'6 6.0 310 / 101028.6 14.7 16.4
2016-Jun-19 00:00N 47°24' W 006°12'0 0.0 290 / 91028.8 14.9 16.7
2016-Jun-18 23:00N 47°24' W 006°12'0 0.0 310 / 111029.1 14.9 16.7
2016-Jun-18 22:00N 47°24' W 006°12'7 7.2 310 / 121029.2 14.9 16.4
2016-Jun-18 21:00N 47°18' W 006°06'4 4.1 290 / 131029.0 14.9 16.5
2016-Jun-18 20:00N 47°18' W 006°00'0 0.0 260 / 61028.3 15.2 16.7
2016-Jun-18 19:00N 47°18' W 006°00'4 4.1 260 / 131028.1 15.0 16.5
2016-Jun-18 18:00N 47°18' W 005°54'6 6.0 320 / 41027.8 21.9 16.4
2016-Jun-18 17:00N 47°24' W 005°54'0 0.0 300 / 111027.4 15.5 16.5
2016-Jun-18 16:00N 47°24' W 005°54'4 4.1 280 / 121027.4 15.4 16.7
2016-Jun-18 15:00N 47°24' W 006°00'6 6.0 280 / 141027.2 19.4 16.7
2016-Jun-18 14:00N 47°30' W 006°00'7 7.2 290 / 111026.9 15.4 16.9
2016-Jun-18 13:00N 47°24' W 006°06'0 0.0 300 / 121026.5 15.2 16.7
2016-Jun-18 12:00N 47°24' W 006°06'0 0.0 300 / 101026.2 15.2 16.5
2016-Jun-18 11:00N 47°24' W 006°06'6 6.0 330 / 111025.8 15.5 16.4
2016-Jun-18 10:00N 47°18' W 006°06'4 4.1 330 / 121025.4 14.9 16.4
2016-Jun-18 09:00N 47°18' W 006°00'0 0.0 310 / 101024.9 15.2 16.4
2016-Jun-18 08:00N 47°18' W 006°00'4 4.1 310 / 141024.2 14.9 15.9
2016-Jun-18 07:00N 47°18' W 005°54'0 0.0 310 / 111023.4 14.7 16.2
2016-Jun-18 06:00N 47°18' W 005°54'6 6.0 330 / 141022.9 16.7 16.0
2016-Jun-18 05:00N 47°24' W 005°54'7 3.6 320 / 151022.4 19.4 15.9
2016-Jun-18 03:00N 47°30' W 006°00'7 2.4 320 / 141021.1 14.9 16.4
2016-Jun-18 00:00N 47°24' W 006°06'0 0.0 330 / 141020.8 14.9 16.4
2016-Jun-17 23:00N 47°24' W 006°06'6 6.0 340 / 141020.9 14.9 16.2
2016-Jun-17 22:00N 47°18' W 006°06'4 4.1 330 / 141020.4 14.9 16.2
2016-Jun-17 21:00N 47°18' W 006°00'0 0.0 340 / 131019.8 14.9 16.2
2016-Jun-17 20:00N 47°18' W 006°00'4 4.1 300 / 161019.1 14.7 16.2
2016-Jun-17 19:00N 47°18' W 005°54'0 0.0 300 / 171018.4 14.9 16.2
2016-Jun-17 18:00N 47°18' W 005°54'4 4.1 350 / 201017.5 14.9 16.2
2016-Jun-17 17:00N 47°18' W 006°00'0 0.0 320 / 171017.0 15.0 16.0
2016-Jun-17 16:00N 47°18' W 006°00'4 4.1 340 / 151016.8 14.7 16.2
2016-Jun-17 15:00N 47°18' W 006°06'0 0.0 340 / 151016.6 14.7 16.2
2016-Jun-17 14:00N 47°18' W 006°06'7 7.2 330 / 151016.0 14.7 15.9
2016-Jun-17 13:00N 47°24' W 006°12'0 0.0 310 / 171015.7 15.0 16.2
2016-Jun-17 12:00N 47°24' W 006°12'0 0.0 320 / 161014.9 18.5 16.0
2016-Jun-17 11:00N 47°24' W 006°12'7 7.2 330 / 161014.4 15.0 16.2
2016-Jun-17 10:00N 47°18' W 006°06'0 0.0 350 / 191013.5 14.7 15.9
2016-Jun-17 09:00N 47°18' W 006°06'4 4.1 340 / 171013.1 14.9 16.2
2016-Jun-17 08:00N 47°18' W 006°00'0 0.0 330 / 151012.4 15.4 16.2
2016-Jun-17 07:00N 47°18' W 006°00'4 4.1 310 / 121011.5 15.4 16.0
2016-Jun-17 06:00N 47°18' W 005°54'0 0.0 310 / 141010.9 15.2 16.2
2016-Jun-17 05:00N 47°18' W 005°54'4 4.1 350 / 161010.1 15.0 16.2
2016-Jun-17 04:00N 47°18' W 006°00'0 0.0 350 / 171009.7 15.2 16.2
2016-Jun-17 03:00N 47°18' W 006°00'7 7.2 320 / 171009.6 20.2 16.2
2016-Jun-17 02:00N 47°24' W 006°06'4 4.1 310 / 121009.4 15.0 16.2
2016-Jun-17 01:00N 47°24' W 006°12'7 3.6 310 / 161009.6 19.2 16.2
2016-Jun-16 23:00N 47°18' W 006°06'0 0.0 320 / 131009.4 15.2 16.2
2016-Jun-16 22:00N 47°18' W 006°06'4 4.1 320 / 151009.3 15.0 16.2
2016-Jun-16 21:00N 47°18' W 006°00'4 1.4 340 / 101008.8 15.4 16.4
2016-Jun-16 18:00N 47°18' W 005°54'7 7.2 310 / 111006.8 15.7 16.5
2016-Jun-16 17:00N 47°24' W 005°48'4 4.1 290 / 121006.2 15.7 16.7
2016-Jun-16 16:00N 47°24' W 005°42'0 0.0 280 / 111005.9 15.9 17.2
2016-Jun-16 15:00N 47°24' W 005°42'6 6.0 310 / 121005.6 15.9 17.2
2016-Jun-16 14:00N 47°30' W 005°42'0 0.0 300 / 131005.4 15.7 17.2
2016-Jun-16 13:00N 47°30' W 005°42'6 6.0 310 / 131005.0 15.5 17.0
2016-Jun-16 12:00N 47°36' W 005°42'4 2.0 310 / 101004.7 15.4 17.0
2016-Jun-16 10:00N 47°36' W 005°36'4 2.0 330 / 81004.1 15.7 16.9
2016-Jun-16 08:00N 47°36' W 005°30'0 0.0 310 / 51003.4 15.4 16.7
2016-Jun-16 07:00N 47°36' W 005°30'4 4.0 290 / 61002.9 14.9 16.9
2016-Jun-16 06:00N 47°36' W 005°24'0 0.0 270 / 61002.5 14.7 17.2
2016-Jun-16 04:00N 47°36' W 005°24'   250 / 91001.8 14.7 17.2
Track history (hours):
 
Tides and Currents Weather Stations Pressure Air Temp Water Temp Dewpoint Dewpoint Depression Visibility Wind Speed Wind Dir Waves Ship Positions

Callsign BATFR34 (name unknown)

Last reported at 2016-Jun-26 04:00 UTC. Time now 2016-Jun-27 09:43 UTC.
Position N 47°48' W 004°18'.

Wind from 300 at 10 knots

Barometer 1023.5 mb
Air temperature 14.4 ° C
Water temperature 15.4 ° C

Date/timePositionNaut miles runAvg speedWind from/ knotsBaromVisibWave heightAir tempDewpointWater temp
2016-Jun-26 04:00N 47°48' W 004°18'1413.5 300 / 101023.5 14.4 15.4
2016-Jun-26 03:00N 47°42' W 004°36'8 8.1 310 / 101023.6 14.9 15.7
2016-Jun-26 02:00N 47°42' W 004°48'17 8.6 310 / 141024.2 15.2 17.7
2016-Jun-26 00:00N 47°36' W 005°12'1010.1 320 / 151024.8 15.4 17.7
2016-Jun-25 23:00N 47°30' W 005°24'8 8.1 340 / 131024.9 15.4 16.5
2016-Jun-25 22:00N 47°30' W 005°36'4 4.1 330 / 141024.8 15.4 17.0
2016-Jun-25 21:00N 47°30' W 005°42'0 0.0 330 / 121024.9 16.0 16.4
2016-Jun-25 20:00N 47°30' W 005°42'4 4.1 360 / 121024.4 15.5 16.7
2016-Jun-25 19:00N 47°30' W 005°48'0 0.0 340 / 121024.4 15.5 16.9
2016-Jun-25 18:00N 47°30' W 005°48'4 4.1 330 / 141024.2 15.7 16.9
2016-Jun-25 17:00N 47°30' W 005°54'7 7.2 330 / 131024.2 15.7 16.9
2016-Jun-25 16:00N 47°24' W 006°00'4 4.1 290 / 91024.5 15.7 16.9
2016-Jun-25 15:00N 47°24' W 005°54'0 0.0 290 / 131024.7 15.5 16.4
2016-Jun-25 14:00N 47°24' W 005°54'0 0.0 290 / 121024.7 15.9 16.0
2016-Jun-25 13:00N 47°24' W 005°54'4 4.1 320 / 101024.4 15.5 15.9
2016-Jun-25 12:00N 47°24' W 005°48'4 2.0 300 / 111024.4 15.2 15.7
2016-Jun-25 10:00N 47°24' W 005°42'6 6.0 310 / 151024.2 15.7 16.9
2016-Jun-25 09:00N 47°30' W 005°42'0 0.0 320 / 121023.9 19.7 16.5
2016-Jun-25 08:00N 47°30' W 005°42'4 4.1 320 / 141023.6 15.7 16.4
2016-Jun-25 07:00N 47°30' W 005°48'4 4.1 330 / 141023.1 15.4 16.5
2016-Jun-25 06:00N 47°30' W 005°54'7 3.6 340 / 121022.8 15.4 16.4
2016-Jun-25 04:00N 47°24' W 006°00'4 2.0 350 / 131022.7 15.2 16.4
2016-Jun-25 02:00N 47°24' W 005°54'6 6.0 280 / 151023.0 15.2 15.9
2016-Jun-25 01:00N 47°18' W 005°54'4 4.1 260 / 131022.9 14.9 15.4
2016-Jun-25 00:00N 47°18' W 005°48'0 0.0 270 / 91023.4 14.7 15.4
2016-Jun-24 23:00N 47°18' W 005°48'4 4.1 260 / 91023.8 14.7 15.7
2016-Jun-24 22:00N 47°18' W 005°42'6 6.0 300 / 91023.7 15.0 16.4
2016-Jun-24 21:00N 47°24' W 005°42'0 0.0 310 / 111023.6 17.9 16.7
2016-Jun-24 20:00N 47°24' W 005°42'4 4.1 300 / 131023.0 19.7 16.2
2016-Jun-24 19:00N 47°24' W 005°48'6 6.0 280 / 121022.9 16.9 15.9
2016-Jun-24 18:00N 47°30' W 005°48'4 4.1 270 / 131022.8 20.9 16.4
2016-Jun-24 17:00N 47°30' W 005°54'7 7.2 270 / 71022.9 15.4 16.7
2016-Jun-24 16:00N 47°24' W 006°00'0 0.0 290 / 121023.0 15.2 16.9
2016-Jun-24 15:00N 47°24' W 006°00'0 0.0 260 / 91023.1 15.4 17.0
2016-Jun-24 14:00N 47°24' W 006°00'6 6.0 280 / 121023.2 14.7 16.7
2016-Jun-24 13:00N 47°18' W 006°00'0 0.0 260 / 81023.5 16.4 16.2
2016-Jun-24 12:00N 47°18' W 006°00'4 4.1 220 / 61023.8 15.7 15.9
2016-Jun-24 11:00N 47°18' W 005°54'7 7.2 250 / 61024.0 15.4 15.7
2016-Jun-24 10:00N 47°24' W 005°48'0 0.0 260 / 51023.7 15.7 15.9
2016-Jun-24 09:00N 47°24' W 005°48'6 6.0 200 / 51023.5 15.5 15.9
2016-Jun-24 08:00N 47°30' W 005°48'4 4.1 250 / 71023.2 15.7 16.0
2016-Jun-24 07:00N 47°30' W 005°54'0 0.0 250 / 81023.0 15.7 16.4
2016-Jun-24 06:00N 47°30' W 005°54'4 4.1 260 / 101022.7 18.0 16.4
2016-Jun-24 05:00N 47°30' W 006°00'0 0.0 250 / 91022.7 16.9 16.7
2016-Jun-24 04:00N 47°30' W 006°00'0 0.0 270 / 81022.4 15.5 16.5
2016-Jun-24 03:00N 47°30' W 006°00'6 6.0 330 / 41022.8 15.5 16.9
2016-Jun-24 02:00N 47°24' W 006°00'0 0.0 260 / 71023.0 15.2 16.5
2016-Jun-24 01:00N 47°24' W 006°00'6 6.0 260 / 101023.4 15.0 16.2
2016-Jun-24 00:00N 47°18' W 006°00'4 4.1 250 / 91023.7 14.9 16.2
2016-Jun-23 23:00N 47°18' W 005°54'7 7.2 330 / 91023.6 15.0 16.0
2016-Jun-23 22:00N 47°24' W 005°48'0 0.0 320 / 71023.4 15.9 15.5
2016-Jun-23 21:00N 47°24' W 005°48'0 0.0 320 / 91022.9 15.4 16.2
2016-Jun-23 20:00N 47°24' W 005°48'7 7.2 310 / 111022.1 15.9 16.0
2016-Jun-23 19:00N 47°30' W 005°54'0 0.0 330 / 81021.6 15.9 16.7
2016-Jun-23 18:00N 47°30' W 005°54'4 4.1 340 / 111021.1 15.9 16.7
2016-Jun-23 17:00N 47°30' W 006°00'0 0.0 340 / 91020.8 15.9 17.0
2016-Jun-23 16:00N 47°30' W 006°00'4 4.1 330 / 101020.7 15.9 17.0
2016-Jun-23 15:00N 47°30' W 006°06'6 6.0 320 / 131020.3 15.9 16.9
2016-Jun-23 14:00N 47°24' W 006°06'4 4.1 320 / 111020.5 15.9 17.2
2016-Jun-23 13:00N 47°24' W 006°12'0 0.0 310 / 121020.4 15.9 16.9
2016-Jun-23 12:00N 47°24' W 006°12'7 7.2 330 / 81019.9 15.9 16.5
2016-Jun-23 11:00N 47°18' W 006°06'0 0.0 320 / 71020.1 16.0 16.7
2016-Jun-23 10:00N 47°18' W 006°06'7 7.2 360 / 111019.5 15.9 16.5
2016-Jun-23 09:00N 47°24' W 006°00'6 6.0 1019.3 16.0 16.7
2016-Jun-23 08:00N 47°30' W 006°00'0 0.0 360 / 151017.7 15.9 16.9
2016-Jun-23 07:00N 47°30' W 006°00'4 4.1 010 / 141017.9 15.5 16.7
2016-Jun-23 06:00N 47°30' W 006°06'4 4.1 340 / 101018.2 15.7 16.7
2016-Jun-23 05:00N 47°30' W 006°12'0 0.0 350 / 121017.3 15.5 16.7
2016-Jun-23 04:00N 47°30' W 006°12'8 4.1 360 / 131017.2 15.5 16.2
2016-Jun-23 02:00N 47°30' W 006°24'0 0.0 320 / 101017.2 15.7 16.5
2016-Jun-23 01:00N 47°30' W 006°24'4 4.1 350 / 131017.3 15.7 16.0
2016-Jun-23 00:00N 47°30' W 006°18'7 7.2 360 / 111017.8 15.5 16.2
2016-Jun-22 23:00N 47°24' W 006°12'0 0.0 350 / 101018.1 15.7 16.5
2016-Jun-22 22:00N 47°24' W 006°12'4 4.1 320 / 61018.5 15.9 16.4
2016-Jun-22 21:00N 47°24' W 006°06'6 6.0 1017.9 17.4 16.5
2016-Jun-22 20:00N 47°30' W 006°06'4 4.1 010 / 91017.3 16.0 16.2
2016-Jun-22 19:00N 47°30' W 006°12'6 6.0 010 / 101017.2 16.0 16.7
2016-Jun-22 18:00N 47°36' W 006°12'0 0.0 350 / 71016.9 16.2 16.7
2016-Jun-22 17:00N 47°36' W 006°12'4 4.0 350 / 61017.4 16.9 16.9
2016-Jun-22 16:00N 47°36' W 006°18'6 6.0 340 / 71017.3 16.7 16.5
2016-Jun-22 15:00N 47°30' W 006°18'0 0.0 340 / 41017.7 16.7 16.7
2016-Jun-22 14:00N 47°30' W 006°18'7 7.2 020 / 31018.4 16.2 16.7
2016-Jun-22 13:00N 47°24' W 006°12'0 0.0 150 / 21018.8 17.2 16.9
2016-Jun-22 12:00N 47°24' W 006°12'4 4.1 130 / 41019.0 16.9 16.7
2016-Jun-22 11:00N 47°24' W 006°06'4 4.1 110 / 41018.9 15.9 16.7
2016-Jun-22 10:00N 47°24' W 006°00'0 0.0 120 / 21018.8 15.7 16.7
2016-Jun-22 09:00N 47°24' W 006°00'6 3.0 170 / 51018.6 0.5 15.9 16.9
2016-Jun-22 07:00N 47°30' W 006°00'0 0.0 170 / 71018.5 15.4 16.7
2016-Jun-22 06:00N 47°30' W 006°00'4 4.1 180 / 61018.0 15.4 16.7
2016-Jun-22 05:00N 47°30' W 006°06'4 4.1 210 / 51017.6 15.5 16.7
2016-Jun-22 04:00N 47°30' W 006°12'0 0.0 170 / 61017.7 15.4 16.4
2016-Jun-22 02:00N 47°30' W 006°12'6 6.0 220 / 91018.6 15.5 16.4
2016-Jun-22 01:00N 47°24' W 006°12'4 4.1 200 / 81018.8 15.7 16.7
2016-Jun-22 00:00N 47°24' W 006°06'0 0.0 210 / 101019.1 15.7 16.4
2016-Jun-21 23:00N 47°24' W 006°06'4 4.1 180 / 91019.2 15.7 16.5
2016-Jun-21 22:00N 47°24' W 006°00'6 3.0 230 / 81019.2 15.7 16.7
2016-Jun-21 20:00N 47°30' W 006°00'4 4.1 180 / 81018.8 15.9 16.7
2016-Jun-21 19:00N 47°30' W 005°54'10 3.4 200 / 91018.5 15.9 16.9
2016-Jun-21 16:00N 47°36' W 006°06'4 4.0 170 / 91018.4 16.2 16.9
2016-Jun-21 15:00N 47°36' W 006°12'6 6.0 110 / 81018.6 15.9 16.9
2016-Jun-21 14:00N 47°30' W 006°12'0 0.0 150 / 91019.2 15.9 16.9
2016-Jun-21 13:00N 47°30' W 006°12'6 6.0 150 / 61019.6 16.4 16.7
2016-Jun-21 12:00N 47°24' W 006°12'0 0.0 150 / 51019.9 16.2 16.7
2016-Jun-21 11:00N 47°24' W 006°12'4 4.1 170 / 51020.2 15.4 16.5
2016-Jun-21 10:00N 47°24' W 006°06'4 4.1 180 / 61020.2 15.4 16.4
2016-Jun-21 09:00N 47°24' W 006°00'0 0.0 160 / 51019.8 15.5 16.4
2016-Jun-21 08:00N 47°24' W 006°00'6 6.0 210 / 41019.6 15.5 16.5
2016-Jun-21 07:00N 47°30' W 006°00'0 0.0 240 / 41019.4 15.4 16.7
2016-Jun-21 06:00N 47°30' W 006°00'8 2.7 280 / 81019.1 15.4 16.7
2016-Jun-21 03:00N 47°30' W 006°12'0 0.0 280 / 91018.7 15.2 16.4
2016-Jun-21 02:00N 47°30' W 006°12'0 0.0 260 / 91019.2 14.9 16.4
2016-Jun-21 01:00N 47°30' W 006°12'6 6.0 260 / 121019.1 14.9 16.2
2016-Jun-21 00:00N 47°24' W 006°12'0 0.0 240 / 121019.6 15.0 16.0
2016-Jun-20 23:00N 47°24' W 006°12'4 4.1 260 / 101020.1 15.2 16.2
2016-Jun-20 22:00N 47°24' W 006°06'0 0.0 260 / 91019.8 15.2 16.4
2016-Jun-20 21:00N 47°24' W 006°06'6 6.0 300 / 101019.7 15.7 16.4
2016-Jun-20 20:00N 47°30' W 006°06'4 4.1 290 / 131019.7 21.4 16.4
2016-Jun-20 19:00N 47°30' W 006°12'0 0.0 280 / 131019.2 19.2 16.2
2016-Jun-20 18:00N 47°30' W 006°12'6 6.0 270 / 121018.7 15.4 16.2
2016-Jun-20 17:00N 47°36' W 006°12'4 4.0 260 / 101018.7 15.9 16.4
2016-Jun-20 16:00N 47°36' W 006°18'0 0.0 250 / 141018.6 15.7 16.4
2016-Jun-20 15:00N 47°36' W 006°18'4 4.0 260 / 141018.6 15.5 16.4
2016-Jun-20 14:00N 47°36' W 006°24'6 6.0 270 / 151018.7 15.5 15.9
2016-Jun-20 13:00N 47°30' W 006°24'0 0.0 260 / 161019.1 15.7 16.0
2016-Jun-20 12:00N 47°30' W 006°24'7 7.2 260 / 151019.3 15.9 15.9
2016-Jun-20 11:00N 47°24' W 006°18'0 0.0 240 / 171019.5 15.9 15.7
2016-Jun-20 10:00N 47°24' W 006°18'4 4.1 230 / 181019.7 15.9 15.7
2016-Jun-20 09:00N 47°24' W 006°12'6 6.0 250 / 151019.6 15.7 15.9
2016-Jun-20 08:00N 47°30' W 006°12'0 0.0 260 / 181019.7 16.4 15.9
2016-Jun-20 07:00N 47°30' W 006°12'6 6.0 210 / 201019.5 15.5 16.2
2016-Jun-20 06:00N 47°36' W 006°12'0 0.0 200 / 191019.4 15.5 16.2
2016-Jun-20 05:00N 47°36' W 006°12'4 4.0 210 / 191019.5 15.7 16.4
2016-Jun-20 04:00N 47°36' W 006°18'0 0.0 230 / 221020.0 16.0 16.4
2016-Jun-20 03:00N 47°36' W 006°18'0 0.0 230 / 191020.6 15.9 16.0
2016-Jun-20 02:00N 47°36' W 006°18'7 7.2 250 / 161021.6 15.5 16.2
2016-Jun-20 01:00N 47°30' W 006°24'4 4.1 260 / 211022.4 15.7 16.2
2016-Jun-20 00:00N 47°30' W 006°18'6 6.0 240 / 191023.4 15.7 16.4
2016-Jun-19 23:00N 47°24' W 006°18'4 4.1 240 / 181024.4 15.7 16.4
2016-Jun-19 22:00N 47°24' W 006°12'0 0.0 210 / 171024.8 15.5 16.2
2016-Jun-19 21:00N 47°24' W 006°12'4 4.1 200 / 151025.6 15.4 16.2
2016-Jun-19 20:00N 47°24' W 006°06'0 0.0 190 / 161025.8 15.4 16.5
2016-Jun-19 19:00N 47°24' W 006°06'4 4.1 230 / 111026.2 15.4 16.7
2016-Jun-19 18:00N 47°24' W 006°00'7 3.6 230 / 121026.5 15.5 16.9
2016-Jun-19 16:00N 47°30' W 006°06'4 4.1 250 / 111027.3 19.0 16.4
2016-Jun-19 15:00N 47°30' W 006°12'0 0.0 230 / 131027.6 15.2 16.4
2016-Jun-19 14:00N 47°30' W 006°12'0 0.0 230 / 121028.0 17.5 16.7
2016-Jun-19 12:00N 47°30' W 006°12'6 6.0 270 / 101028.7 15.4 16.2
2016-Jun-19 11:00N 47°24' W 006°12'4 2.0 270 / 91029.0 15.5 16.7
2016-Jun-19 09:00N 47°24' W 006°06'4 4.1 250 / 101029.1 15.9 16.4
2016-Jun-19 08:00N 47°24' W 006°00'0 0.0 300 / 91029.1 15.2 16.4
2016-Jun-19 07:00N 47°24' W 006°00'7 3.6 280 / 91028.8 15.2 16.4
2016-Jun-19 05:00N 47°30' W 006°06'4 2.0 270 / 101028.2 15.0 16.7
2016-Jun-19 03:00N 47°30' W 006°12'0 0.0 270 / 91028.3 15.2 16.5
2016-Jun-19 02:00N 47°30' W 006°12'0 0.0 300 / 101028.4 14.9 16.4
2016-Jun-19 01:00N 47°30' W 006°12'6 6.0 310 / 101028.6 14.7 16.4
2016-Jun-19 00:00N 47°24' W 006°12'0 0.0 290 / 91028.8 14.9 16.7
2016-Jun-18 23:00N 47°24' W 006°12'0 0.0 310 / 111029.1 14.9 16.7
2016-Jun-18 22:00N 47°24' W 006°12'7 7.2 310 / 121029.2 14.9 16.4
2016-Jun-18 21:00N 47°18' W 006°06'4 4.1 290 / 131029.0 14.9 16.5
2016-Jun-18 20:00N 47°18' W 006°00'0 0.0 260 / 61028.3 15.2 16.7
2016-Jun-18 19:00N 47°18' W 006°00'4 4.1 260 / 131028.1 15.0 16.5
2016-Jun-18 18:00N 47°18' W 005°54'6 6.0 320 / 41027.8 21.9 16.4
2016-Jun-18 17:00N 47°24' W 005°54'0 0.0 300 / 111027.4 15.5 16.5
2016-Jun-18 16:00N 47°24' W 005°54'4 4.1 280 / 121027.4 15.4 16.7
2016-Jun-18 15:00N 47°24' W 006°00'6 6.0 280 / 141027.2 19.4 16.7
2016-Jun-18 14:00N 47°30' W 006°00'7 7.2 290 / 111026.9 15.4 16.9
2016-Jun-18 13:00N 47°24' W 006°06'0 0.0 300 / 121026.5 15.2 16.7
2016-Jun-18 12:00N 47°24' W 006°06'0 0.0 300 / 101026.2 15.2 16.5
2016-Jun-18 11:00N 47°24' W 006°06'6 6.0 330 / 111025.8 15.5 16.4
2016-Jun-18 10:00N 47°18' W 006°06'4 4.1 330 / 121025.4 14.9 16.4
2016-Jun-18 09:00N 47°18' W 006°00'0 0.0 310 / 101024.9 15.2 16.4
2016-Jun-18 08:00N 47°18' W 006°00'4 4.1 310 / 141024.2 14.9 15.9
2016-Jun-18 07:00N 47°18' W 005°54'0 0.0 310 / 111023.4 14.7 16.2
2016-Jun-18 06:00N 47°18' W 005°54'6 6.0 330 / 141022.9 16.7 16.0
2016-Jun-18 05:00N 47°24' W 005°54'7 3.6 320 / 151022.4 19.4 15.9
2016-Jun-18 03:00N 47°30' W 006°00'7 2.4 320 / 141021.1 14.9 16.4
2016-Jun-18 00:00N 47°24' W 006°06'0 0.0 330 / 141020.8 14.9 16.4
2016-Jun-17 23:00N 47°24' W 006°06'6 6.0 340 / 141020.9 14.9 16.2
2016-Jun-17 22:00N 47°18' W 006°06'4 4.1 330 / 141020.4 14.9 16.2
2016-Jun-17 21:00N 47°18' W 006°00'0 0.0 340 / 131019.8 14.9 16.2
2016-Jun-17 20:00N 47°18' W 006°00'4 4.1 300 / 161019.1 14.7 16.2
2016-Jun-17 19:00N 47°18' W 005°54'0 0.0 300 / 171018.4 14.9 16.2
2016-Jun-17 18:00N 47°18' W 005°54'4 4.1 350 / 201017.5 14.9 16.2
2016-Jun-17 17:00N 47°18' W 006°00'0 0.0 320 / 171017.0 15.0 16.0
2016-Jun-17 16:00N 47°18' W 006°00'4 4.1 340 / 151016.8 14.7 16.2
2016-Jun-17 15:00N 47°18' W 006°06'0 0.0 340 / 151016.6 14.7 16.2
2016-Jun-17 14:00N 47°18' W 006°06'7 7.2 330 / 151016.0 14.7 15.9
2016-Jun-17 13:00N 47°24' W 006°12'0 0.0 310 / 171015.7 15.0 16.2
2016-Jun-17 12:00N 47°24' W 006°12'0 0.0 320 / 161014.9 18.5 16.0
2016-Jun-17 11:00N 47°24' W 006°12'7 7.2 330 / 161014.4 15.0 16.2
2016-Jun-17 10:00N 47°18' W 006°06'0 0.0 350 / 191013.5 14.7 15.9
2016-Jun-17 09:00N 47°18' W 006°06'4 4.1 340 / 171013.1 14.9 16.2
2016-Jun-17 08:00N 47°18' W 006°00'0 0.0 330 / 151012.4 15.4 16.2
2016-Jun-17 07:00N 47°18' W 006°00'4 4.1 310 / 121011.5 15.4 16.0
2016-Jun-17 06:00N 47°18' W 005°54'0 0.0 310 / 141010.9 15.2 16.2
2016-Jun-17 05:00N 47°18' W 005°54'4 4.1 350 / 161010.1 15.0 16.2
2016-Jun-17 04:00N 47°18' W 006°00'0 0.0 350 / 171009.7 15.2 16.2
2016-Jun-17 03:00N 47°18' W 006°00'7 7.2 320 / 171009.6 20.2 16.2
2016-Jun-17 02:00N 47°24' W 006°06'4 4.1 310 / 121009.4 15.0 16.2
2016-Jun-17 01:00N 47°24' W 006°12'7 3.6 310 / 161009.6 19.2 16.2
2016-Jun-16 23:00N 47°18' W 006°06'0 0.0 320 / 131009.4 15.2 16.2
2016-Jun-16 22:00N 47°18' W 006°06'4 4.1 320 / 151009.3 15.0 16.2
2016-Jun-16 21:00N 47°18' W 006°00'4 1.4 340 / 101008.8 15.4 16.4
2016-Jun-16 18:00N 47°18' W 005°54'7 7.2 310 / 111006.8 15.7 16.5
2016-Jun-16 17:00N 47°24' W 005°48'4 4.1 290 / 121006.2 15.7 16.7
2016-Jun-16 16:00N 47°24' W 005°42'0 0.0 280 / 111005.9 15.9 17.2
2016-Jun-16 15:00N 47°24' W 005°42'6 6.0 310 / 121005.6 15.9 17.2
2016-Jun-16 14:00N 47°30' W 005°42'0 0.0 300 / 131005.4 15.7 17.2
2016-Jun-16 13:00N 47°30' W 005°42'6 6.0 310 / 131005.0 15.5 17.0
2016-Jun-16 12:00N 47°36' W 005°42'4 2.0 310 / 101004.7 15.4 17.0
2016-Jun-16 10:00N 47°36' W 005°36'4 2.0 330 / 81004.1 15.7 16.9
2016-Jun-16 08:00N 47°36' W 005°30'0 0.0 310 / 51003.4 15.4 16.7
2016-Jun-16 07:00N 47°36' W 005°30'4 4.0 290 / 61002.9 14.9 16.9
2016-Jun-16 06:00N 47°36' W 005°24'0 0.0 270 / 61002.5 14.7 17.2
2016-Jun-16 04:00N 47°36' W 005°24'   250 / 91001.8 14.7 17.2

Dump ship's entire track history